This is the latest recevied weather packets stored in our database for station/object VE3TEJ. If no packets are shown the sender has not sent any weather packets the latest 10 day(s).
| Time | Temp. | Humidity | Pressure | Rain* | Wind** | Luminosity | Snow |
|---|---|---|---|---|---|---|---|
| 1777912748 | 19.44° C | 55% | 1003 hPa | 0 mm | - | - | - |
| 1777912447 | 19.44° C | 56% | 1003 hPa | 0 mm | - | - | - |
| 1777912147 | 19.44° C | 56% | 1003.1 hPa | 0 mm | - | - | - |
| 1777911848 | 20° C | 55% | 1003.2 hPa | 0 mm | - | - | - |
| 1777911548 | 19.44° C | 58% | 1003.2 hPa | 0 mm | - | - | - |
| 1777911248 | 19.44° C | 57% | 1003.2 hPa | 0 mm | - | - | - |
| 1777910947 | 19.44° C | 57% | 1003.2 hPa | 0 mm | - | - | - |
| 1777910649 | 19.44° C | 57% | 1003.3 hPa | 0 mm | - | - | - |
| 1777910348 | 19.44° C | 56% | 1003.5 hPa | 0 mm | - | - | - |
| 1777910048 | 18.89° C | 56% | 1003.4 hPa | 0 mm | - | - | - |
| 1777909748 | 18.89° C | 59% | 1003.4 hPa | 0 mm | - | - | - |
| 1777909447 | 19.44° C | 58% | 1003.5 hPa | 0 mm | - | - | - |
| 1777909149 | 18.89° C | 58% | 1003.5 hPa | 0 mm | - | - | - |
| 1777908848 | 18.89° C | 58% | 1003.6 hPa | 0 mm | - | - | - |
| 1777908549 | 18.89° C | 57% | 1003.6 hPa | 0 mm | - | - | - |
| 1777908248 | 18.33° C | 60% | 1003.7 hPa | 0 mm | - | - | - |
| 1777907947 | 18.33° C | 59% | 1003.6 hPa | 0 mm | - | - | - |
| 1777907648 | 18.33° C | 58% | 1003.5 hPa | 0 mm | - | - | - |
| 1777907347 | 17.78° C | 60% | 1003.8 hPa | 0 mm | - | - | - |
| 1777907049 | 18.33° C | 58% | 1003.6 hPa | 0 mm | - | - | - |
| 1777906748 | 17.78° C | 60% | 1003.6 hPa | 0 mm | - | - | - |
| 1777906448 | 18.33° C | 59% | 1003.8 hPa | 0 mm | - | - | - |
| 1777906147 | 17.22° C | 61% | 1003.9 hPa | 0 mm | - | - | - |
| 1777905849 | 17.78° C | 60% | 1003.9 hPa | 0 mm | - | - | - |
| 1777905548 | 18.33° C | 58% | 1003.9 hPa | 0 mm | - | - | - |
* Rain latest hour (hover to see other rain measurements)
** Current wind speed in m/s (hover to see current wind gust speed)